Terminal Aerodrome Forecast
Issued by NWS

Home | Current Version | Previous Version | Text Only | Print | Product List | Glossary On
Versions: 1 2 3 4 5 6 7 8 9 10 11 12
000
FTUS44 KSJT 261725
TAFBBD
TAF
KBBD 261725Z 2618/2718 03007KT P6SM VCTS SCT050CB BKN250
      TEMPO 2618/2622 VRB20G30KT 3SM -TSRA BKN030CB
     FM262200 09006KT P6SM VCTS BKN060CB BKN250
     FM270100 VRB04KT P6SM SCT250
      AMD NOT SKED=

USA.gov is the U.S. government's official web portal to all federal, state and local government web resources and services.